Time;durP1;ratioP1;P1;durP2;ratioP2;P2;SDS_P1;SDS_P2;PMS_P1;PMS_P2;Temp;Humidity;BMP_temperature;BMP_pressure;BME280_temperature;BME280_humidity;BME280_pressure;Samples;Min_cycle;Max_cycle;Signal;HPM_P1;HPM_P2
2021/06/13 00:01:29;;;;;;;0.80;0.32;;;;;;;;;;5013164;28;20038;-70
2021/06/13 00:03:56;;;;;;;2.90;0.38;;;;;;;;;;5014606;28;20389;-70
2021/06/13 00:06:23;;;;;;;0.93;0.32;;;;;;;;;;5011280;28;20483;-71
2021/06/13 00:08:50;;;;;;;1.92;0.70;;;;;;;;;;5014523;28;20037;-70
2021/06/13 00:11:18;;;;;;;2.25;0.70;;;;;;;;;;5002026;28;20474;-70
2021/06/13 00:13:45;;;;;;;1.20;0.40;;;;;;;;;;5013610;28;20026;-70
2021/06/13 00:16:13;;;;;;;1.85;0.50;;;;;;;;;;5013023;28;20110;-70
2021/06/13 00:18:40;;;;;;;1.50;0.35;;;;;;;;;;5014380;28;20467;-70
2021/06/13 00:21:07;;;;;;;2.92;0.43;;;;;;;;;;5004618;28;20076;-70
2021/06/13 00:23:34;;;;;;;0.95;0.30;;;;;;;;;;5013219;28;20046;-70
2021/06/13 00:26:01;;;;;;;1.27;0.60;;;;;;;;;;5012303;28;20554;-70
2021/06/13 00:28:28;;;;;;;2.03;0.22;;;;;;;;;;5011540;28;20026;-70
2021/06/13 00:30:55;;;;;;;1.60;0.43;;;;;;;;;;5002353;28;20467;-70
2021/06/13 00:33:22;;;;;;;1.63;0.60;;;;;;;;;;5008745;28;20022;-71
2021/06/13 00:35:52;;;;;;;1.40;0.35;;;;;;;;;;5012757;28;20022;-71
2021/06/13 00:38:20;;;;;;;0.68;0.35;;;;;;;;;;5012740;28;20374;-70
2021/06/13 00:40:47;;;;;;;1.38;0.30;;;;;;;;;;5011150;28;20029;-70
2021/06/13 00:43:14;;;;;;;1.60;0.50;;;;;;;;;;5013868;28;20053;-70
2021/06/13 00:45:41;;;;;;;2.13;0.40;;;;;;;;;;5009498;28;20088;-70
2021/06/13 00:48:08;;;;;;;0.60;0.30;;;;;;;;;;5002728;28;20076;-70
2021/06/13 00:50:35;;;;;;;1.75;0.50;;;;;;;;;;5010415;28;20414;-70
2021/06/13 00:53:05;;;;;;;1.75;0.32;;;;;;;;;;5013620;28;20414;-71
2021/06/13 00:55:32;;;;;;;1.70;0.43;;;;;;;;;;5011653;28;20124;-70
2021/06/13 00:58:00;;;;;;;0.93;0.40;;;;;;;;;;5013117;28;20018;-70
2021/06/13 01:00:28;;;;;;;1.98;0.47;;;;;;;;;;5011433;28;20076;-70
2021/06/13 01:02:58;;;;;;;1.33;0.40;;;;;;;;;;5013328;28;20531;-70
2021/06/13 01:05:26;;;;;;;1.30;0.45;;;;;;;;;;5007933;28;20117;-71
2021/06/13 01:07:53;;;;;;;2.10;0.93;;;;;;;;;;5013566;28;20477;-69
2021/06/13 01:10:20;;;;;;;1.25;0.45;;;;;;;;;;5011566;28;20390;-69
2021/06/13 01:12:48;;;;;;;1.05;0.43;;;;;;;;;;5012881;28;20455;-70
2021/06/13 01:15:17;;;;;;;2.08;0.50;;;;;;;;;;5013405;28;20436;-70
2021/06/13 01:17:44;;;;;;;1.48;0.70;;;;;;;;;;5012986;28;20022;-70
2021/06/13 01:20:26;;;;;;;1.88;0.60;;;;;;;;;;5010311;28;20037;-70
2021/06/13 01:22:59;;;;;;;2.08;0.40;;;;;;;;;;5013284;28;20018;-70
2021/06/13 01:25:32;;;;;;;1.67;0.70;;;;;;;;;;5009326;28;20057;-70
2021/06/13 01:28:15;;;;;;;1.02;0.57;;;;;;;;;;5009955;28;20029;-70
2021/06/13 01:30:43;;;;;;;0.85;0.50;;;;;;;;;;5011340;28;20018;-70
2021/06/13 01:33:12;;;;;;;1.88;0.60;;;;;;;;;;5013333;28;20022;-71
2021/06/13 01:35:39;;;;;;;2.65;0.65;;;;;;;;;;5012391;28;20028;-70
2021/06/13 01:38:09;;;;;;;1.80;0.50;;;;;;;;;;5011514;28;20422;-70
2021/06/13 01:40:37;;;;;;;1.35;0.50;;;;;;;;;;5011288;28;20101;-70
2021/06/13 01:43:05;;;;;;;3.80;0.68;;;;;;;;;;5010110;28;20030;-69
2021/06/13 01:45:35;;;;;;;1.42;0.60;;;;;;;;;;5011139;28;20026;-69
2021/06/13 01:48:02;;;;;;;1.77;0.90;;;;;;;;;;5012843;28;20032;-69
2021/06/13 01:50:31;;;;;;;2.75;0.75;;;;;;;;;;5010560;28;20046;-69
2021/06/13 01:53:00;;;;;;;1.40;0.60;;;;;;;;;;5012453;28;20108;-69
2021/06/13 01:55:27;;;;;;;1.40;0.70;;;;;;;;;;5010900;28;20017;-69
2021/06/13 01:57:55;;;;;;;1.60;0.65;;;;;;;;;;5012643;28;20116;-70
2021/06/13 02:00:23;;;;;;;2.35;0.60;;;;;;;;;;5010740;28;20022;-69
2021/06/13 02:02:51;;;;;;;2.20;0.85;;;;;;;;;;5012646;28;20105;-70
2021/06/13 02:05:19;;;;;;;1.80;0.93;;;;;;;;;;5010955;28;20030;-69
2021/06/13 02:07:47;;;;;;;3.10;1.10;;;;;;;;;;5012427;28;20024;-69
2021/06/13 02:10:16;;;;;;;1.83;0.90;;;;;;;;;;5004586;28;20030;-69
2021/06/13 02:12:44;;;;;;;2.40;1.10;;;;;;;;;;5012474;28;20409;-69
2021/06/13 02:15:12;;;;;;;3.17;1.10;;;;;;;;;;5010025;28;20022;-69
2021/06/13 02:17:42;;;;;;;2.95;1.33;;;;;;;;;;5011323;28;20034;-69
2021/06/13 02:20:11;;;;;;;2.45;0.90;;;;;;;;;;5004654;28;20023;-69
2021/06/13 02:22:39;;;;;;;2.47;1.10;;;;;;;;;;5012376;28;20029;-70
2021/06/13 02:25:06;;;;;;;3.47;0.80;;;;;;;;;;5009103;28;20053;-69
2021/06/13 02:27:33;;;;;;;5.63;1.30;;;;;;;;;;5012200;28;20034;-69
2021/06/13 02:30:01;;;;;;;2.47;1.08;;;;;;;;;;5010391;28;20289;-69
2021/06/13 02:32:31;;;;;;;2.55;1.05;;;;;;;;;;5012217;28;20030;-69
2021/06/13 02:34:59;;;;;;;1.92;0.80;;;;;;;;;;5010458;28;20386;-70
2021/06/13 02:37:27;;;;;;;2.97;1.00;;;;;;;;;;5000753;28;20514;-70
2021/06/13 02:39:54;;;;;;;1.92;1.10;;;;;;;;;;4992628;28;20058;-69
2021/06/13 02:42:22;;;;;;;1.20;0.60;;;;;;;;;;5010955;28;20052;-70
2021/06/13 02:44:49;;;;;;;2.03;1.00;;;;;;;;;;5010619;28;20069;-70
2021/06/13 02:47:17;;;;;;;1.70;0.90;;;;;;;;;;5011858;28;20351;-69
2021/06/13 02:49:44;;;;;;;1.92;1.05;;;;;;;;;;5011173;28;20474;-69
2021/06/13 02:52:11;;;;;;;3.03;0.75;;;;;;;;;;5011534;28;20096;-70
2021/06/13 02:54:40;;;;;;;2.78;1.50;;;;;;;;;;5010459;28;20038;-70
2021/06/13 02:57:09;;;;;;;1.27;0.80;;;;;;;;;;5001908;28;20566;-69
2021/06/13 02:59:47;;;;;;;1.10;0.57;;;;;;;;;;5012049;28;20065;-70
2021/06/13 03:02:15;;;;;;;1.08;0.47;;;;;;;;;;5011253;28;20025;-69
2021/06/13 03:04:44;;;;;;;0.73;0.30;;;;;;;;;;5002518;28;20038;-70
2021/06/13 03:07:16;;;;;;;3.88;1.10;;;;;;;;;;5015186;28;20030;-70
2021/06/13 03:09:43;;;;;;;2.22;1.35;;;;;;;;;;5013753;28;20026;-69
2021/06/13 03:12:10;;;;;;;0.70;0.40;;;;;;;;;;5015194;28;20422;-71
2021/06/13 03:14:41;;;;;;;0.70;0.50;;;;;;;;;;5009460;28;20092;-70
2021/06/13 03:17:08;;;;;;;1.95;0.80;;;;;;;;;;5012657;28;20602;-70
2021/06/13 03:19:36;;;;;;;2.10;0.60;;;;;;;;;;5015424;28;20030;-70
2021/06/13 03:22:04;;;;;;;1.30;0.50;;;;;;;;;;5013628;28;20029;-70
2021/06/13 03:24:32;;;;;;;2.15;0.80;;;;;;;;;;5015186;28;20042;-70
2021/06/13 03:26:59;;;;;;;1.20;0.30;;;;;;;;;;5012499;28;20401;-71
2021/06/13 03:29:27;;;;;;;2.00;0.50;;;;;;;;;;5015521;28;20029;-70
2021/06/13 03:31:55;;;;;;;1.60;0.50;;;;;;;;;;5000425;28;20475;-70
2021/06/13 03:34:22;;;;;;;2.70;0.77;;;;;;;;;;5009208;28;20418;-71
2021/06/13 03:36:50;;;;;;;1.38;0.73;;;;;;;;;;5013278;28;20026;-71
2021/06/13 03:39:18;;;;;;;2.08;0.57;;;;;;;;;;5014855;28;20031;-71
2021/06/13 03:41:45;;;;;;;3.08;0.30;;;;;;;;;;5013066;28;20022;-71
2021/06/13 03:44:13;;;;;;;1.92;0.98;;;;;;;;;;5014890;28;20474;-70
2021/06/13 03:46:40;;;;;;;2.47;0.88;;;;;;;;;;5011803;28;20088;-71
2021/06/13 03:49:10;;;;;;;2.55;0.70;;;;;;;;;;5014739;28;20084;-71
2021/06/13 03:51:37;;;;;;;3.70;0.50;;;;;;;;;;5013228;28;20470;-70
2021/06/13 03:54:04;;;;;;;1.20;0.47;;;;;;;;;;5013417;28;20052;-70
2021/06/13 03:56:41;;;;;;;1.88;0.70;;;;;;;;;;5011331;28;20088;-71
2021/06/13 03:59:12;;;;;;;1.55;0.70;;;;;;;;;;4999597;28;20038;-70
2021/06/13 04:01:39;;;;;;;2.95;2.33;;;;;;;;;;5008294;28;20037;-71
2021/06/13 04:04:07;;;;;;;1.60;0.85;;;;;;;;;;5014743;28;20018;-70
2021/06/13 04:06:34;;;;;;;0.98;0.30;;;;;;;;;;5013328;28;20029;-71
2021/06/13 04:09:03;;;;;;;0.90;0.30;;;;;;;;;;5011205;28;20164;-71
2021/06/13 04:11:32;;;;;;;1.75;0.20;;;;;;;;;;4994888;28;20061;-71
2021/06/13 04:14:01;;;;;;;1.02;0.43;;;;;;;;;;5013136;28;20040;-70
2021/06/13 04:16:28;;;;;;;0.93;0.30;;;;;;;;;;5012932;28;20034;-70
2021/06/13 04:18:56;;;;;;;2.10;0.93;;;;;;;;;;5013080;28;20112;-71
2021/06/13 04:21:24;;;;;;;1.55;0.60;;;;;;;;;;5012685;28;20030;-70
2021/06/13 04:23:52;;;;;;;0.98;0.40;;;;;;;;;;5012780;28;20056;-70
2021/06/13 04:26:20;;;;;;;0.73;0.20;;;;;;;;;;5009756;28;20038;-71
2021/06/13 04:28:48;;;;;;;1.77;0.40;;;;;;;;;;5012544;28;20116;-71
2021/06/13 04:31:17;;;;;;;1.27;0.25;;;;;;;;;;5011762;28;20026;-70
2021/06/13 04:33:48;;;;;;;1.45;0.40;;;;;;;;;;5014143;28;20026;-71
2021/06/13 04:36:18;;;;;;;1.50;0.70;;;;;;;;;;5012189;28;20036;-70
2021/06/13 04:38:46;;;;;;;1.52;0.20;;;;;;;;;;5013593;28;20030;-70
2021/06/13 04:41:13;;;;;;;0.82;0.20;;;;;;;;;;5010274;28;20053;-70
2021/06/13 04:43:40;;;;;;;0.98;0.13;;;;;;;;;;5013747;28;20089;-70
2021/06/13 04:46:11;;;;;;;1.75;0.20;;;;;;;;;;5010629;28;20434;-70
2021/06/13 04:48:38;;;;;;;0.45;0.20;;;;;;;;;;5009165;28;20033;-70
2021/06/13 04:51:07;;;;;;;0.80;0.20;;;;;;;;;;5000962;28;20034;-70
2021/06/13 04:53:52;;;;;;;1.02;0.20;;;;;;;;;;4996381;28;20093;-70
2021/06/13 04:56:22;;;;;;;1.33;0.20;;;;;;;;;;5005623;28;20025;-70
2021/06/13 04:58:49;;;;;;;0.43;0.20;;;;;;;;;;5013797;28;20025;-69
2021/06/13 05:01:17;;;;;;;1.15;0.32;;;;;;;;;;5010824;28;20475;-70
2021/06/13 05:03:44;;;;;;;0.77;0.10;;;;;;;;;;5000005;28;20030;-70
2021/06/13 05:06:11;;;;;;;1.55;0.40;;;;;;;;;;5010378;28;20483;-70
2021/06/13 05:08:42;;;;;;;1.17;0.50;;;;;;;;;;5013157;28;20036;-70
2021/06/13 05:11:10;;;;;;;0.90;0.20;;;;;;;;;;5011241;28;20114;-70
2021/06/13 05:13:37;;;;;;;0.65;0.10;;;;;;;;;;5013325;28;20036;-69
2021/06/13 05:16:05;;;;;;;0.17;0.10;;;;;;;;;;5007779;28;20022;-70
2021/06/13 05:18:32;;;;;;;1.10;0.10;;;;;;;;;;5011711;28;20052;-70
2021/06/13 05:20:59;;;;;;;1.92;0.30;;;;;;;;;;5005118;28;20076;-70
2021/06/13 05:23:26;;;;;;;0.75;0.40;;;;;;;;;;5011496;28;20113;-70
2021/06/13 05:25:54;;;;;;;2.17;1.13;;;;;;;;;;5009452;28;20395;-70
2021/06/13 05:28:22;;;;;;;1.25;0.60;;;;;;;;;;5012136;28;20037;-69
2021/06/13 05:30:50;;;;;;;1.30;0.30;;;;;;;;;;5009917;28;20448;-70
2021/06/13 05:33:17;;;;;;;0.77;0.40;;;;;;;;;;5013133;28;20022;-70
2021/06/13 05:35:44;;;;;;;1.20;0.40;;;;;;;;;;5010732;28;20368;-69
2021/06/13 05:38:12;;;;;;;0.50;0.20;;;;;;;;;;5012889;28;20378;-70
2021/06/13 05:40:40;;;;;;;0.25;0.25;;;;;;;;;;5009473;28;20061;-70
2021/06/13 05:43:08;;;;;;;0.57;0.20;;;;;;;;;;5012753;28;20022;-70
2021/06/13 05:45:36;;;;;;;0.47;0.20;;;;;;;;;;5006107;28;20070;-70
2021/06/13 05:48:06;;;;;;;0.47;0.20;;;;;;;;;;5011581;28;20121;-69
2021/06/13 05:50:34;;;;;;;1.08;0.30;;;;;;;;;;5009222;28;20045;-70
2021/06/13 05:53:02;;;;;;;1.33;0.20;;;;;;;;;;5012588;28;20053;-70
2021/06/13 05:55:29;;;;;;;0.98;0.20;;;;;;;;;;5010836;28;20101;-70
2021/06/13 05:57:56;;;;;;;0.70;0.17;;;;;;;;;;5007899;28;20022;-70
2021/06/13 06:00:31;;;;;;;0.50;0.10;;;;;;;;;;5007047;28;20029;-70
2021/06/13 06:02:57;;;;;;;;;;;;;;;;;;5012908;28;20056;-69
2021/06/13 06:05:25;;;;;;;1.65;0.30;;;;;;;;;;5010501;28;19971;-70
2021/06/13 06:07:54;;;;;;;1.02;0.20;;;;;;;;;;5012251;28;20101;-70
2021/06/13 06:10:23;;;;;;;1.30;0.40;;;;;;;;;;5008992;28;20442;-70
2021/06/13 06:12:53;;;;;;;0.80;0.30;;;;;;;;;;5011361;28;20037;-70
2021/06/13 06:15:21;;;;;;;0.77;0.22;;;;;;;;;;5004402;28;20518;-70
2021/06/13 06:17:49;;;;;;;0.93;0.20;;;;;;;;;;5012497;28;20499;-69
2021/06/13 06:20:17;;;;;;;0.80;0.30;;;;;;;;;;5009964;28;20018;-69
2021/06/13 06:22:45;;;;;;;1.05;0.30;;;;;;;;;;5012154;28;20479;-70
2021/06/13 06:25:12;;;;;;;2.22;0.32;;;;;;;;;;5009936;28;20506;-69
2021/06/13 06:27:40;;;;;;;1.38;0.75;;;;;;;;;;5011016;28;20035;-69
2021/06/13 06:30:08;;;;;;;0.63;0.30;;;;;;;;;;5010468;28;20026;-69
2021/06/13 06:32:38;;;;;;;0.82;0.45;;;;;;;;;;5010936;28;20026;-70
2021/06/13 06:35:06;;;;;;;1.63;0.50;;;;;;;;;;5010030;28;20053;-69
2021/06/13 06:37:34;;;;;;;1.45;0.45;;;;;;;;;;5012421;28;20033;-69
2021/06/13 06:40:02;;;;;;;0.98;0.38;;;;;;;;;;5007890;28;20033;-69
2021/06/13 06:42:31;;;;;;;0.85;0.30;;;;;;;;;;5014927;28;20045;-69
2021/06/13 06:44:58;;;;;;;2.50;0.50;;;;;;;;;;5013891;28;20057;-69
2021/06/13 06:47:25;;;;;;;1.08;0.63;;;;;;;;;;5015982;28;20589;-70
2021/06/13 06:49:53;;;;;;;2.72;0.47;;;;;;;;;;5014256;28;20022;-70
2021/06/13 06:52:20;;;;;;;0.70;0.40;;;;;;;;;;4999558;28;20032;-70
2021/06/13 06:54:47;;;;;;;1.20;0.35;;;;;;;;;;5012528;28;20026;-70
2021/06/13 06:57:14;;;;;;;1.10;0.60;;;;;;;;;;5015292;28;20026;-70
2021/06/13 06:59:41;;;;;;;1.35;0.70;;;;;;;;;;5014922;28;20053;-70
2021/06/13 07:02:08;;;;;;;3.30;0.90;;;;;;;;;;5013420;28;20061;-69
2021/06/13 07:04:35;;;;;;;2.05;1.10;;;;;;;;;;5014367;28;20038;-69
2021/06/13 07:07:03;;;;;;;2.47;0.55;;;;;;;;;;5010491;28;20022;-70
2021/06/13 07:09:30;;;;;;;3.80;1.30;;;;;;;;;;4996719;28;20037;-69
2021/06/13 07:11:57;;;;;;;3.85;1.27;;;;;;;;;;5012475;28;20490;-69
2021/06/13 07:14:24;;;;;;;2.47;0.98;;;;;;;;;;5012764;28;20030;-70
2021/06/13 07:16:51;;;;;;;5.05;1.80;;;;;;;;;;5012396;28;20060;-69
2021/06/13 07:19:18;;;;;;;2.60;1.55;;;;;;;;;;5015721;28;20024;-70
2021/06/13 07:21:45;;;;;;;3.25;1.67;;;;;;;;;;4998819;28;20364;-69
2021/06/13 07:24:15;;;;;;;4.63;2.85;;;;;;;;;;5015043;28;20111;-69
2021/06/13 07:26:42;;;;;;;4.18;2.10;;;;;;;;;;5011873;28;20038;-69
2021/06/13 07:29:10;;;;;;;6.35;3.33;;;;;;;;;;5013898;28;20502;-70
2021/06/13 07:31:37;;;;;;;7.03;2.90;;;;;;;;;;5014478;28;20109;-70
2021/06/13 07:34:04;;;;;;;5.47;3.30;;;;;;;;;;5010342;28;20030;-69
2021/06/13 07:36:34;;;;;;;7.20;4.13;;;;;;;;;;5008594;28;20360;-69
2021/06/13 07:39:01;;;;;;;7.53;3.88;;;;;;;;;;5015085;28;20022;-69
2021/06/13 07:41:28;;;;;;;5.18;2.90;;;;;;;;;;5012922;28;20517;-69
2021/06/13 07:43:55;;;;;;;6.95;3.40;;;;;;;;;;5015124;28;20018;-69
2021/06/13 07:46:22;;;;;;;10.38;4.80;;;;;;;;;;5011414;28;20022;-69
2021/06/13 07:48:49;;;;;;;6.15;3.90;;;;;;;;;;5009119;28;20061;-70
2021/06/13 07:51:17;;;;;;;7.90;3.28;;;;;;;;;;5011769;28;20491;-70
2021/06/13 07:53:44;;;;;;;4.10;2.70;;;;;;;;;;5014483;28;20030;-69
2021/06/13 07:56:15;;;;;;;5.57;3.45;;;;;;;;;;5012761;28;20026;-69
2021/06/13 07:58:42;;;;;;;5.10;2.47;;;;;;;;;;5013257;28;20025;-70
2021/06/13 08:01:09;;;;;;;4.13;2.50;;;;;;;;;;5011359;28;20022;-69
2021/06/13 08:03:40;;;;;;;4.45;2.67;;;;;;;;;;4996273;28;20022;-71
2021/06/13 08:06:08;;;;;;;5.13;3.70;;;;;;;;;;5003069;28;20034;-69
2021/06/13 08:08:35;;;;;;;4.85;2.78;;;;;;;;;;5014299;28;20030;-69
2021/06/13 08:11:03;;;;;;;5.38;2.83;;;;;;;;;;5012625;28;20097;-69
2021/06/13 08:13:31;;;;;;;3.85;2.17;;;;;;;;;;5013319;28;20030;-70
2021/06/13 08:15:58;;;;;;;4.88;2.28;;;;;;;;;;5010901;28;20113;-69
2021/06/13 08:18:25;;;;;;;5.40;2.80;;;;;;;;;;5014281;28;20034;-69
2021/06/13 08:20:52;;;;;;;3.92;2.30;;;;;;;;;;5011187;28;20033;-69
2021/06/13 08:23:19;;;;;;;6.32;2.80;;;;;;;;;;5014357;28;20076;-70
2021/06/13 08:25:46;;;;;;;9.10;3.90;;;;;;;;;;5012244;28;20077;-70
2021/06/13 08:28:14;;;;;;;6.70;3.33;;;;;;;;;;5009537;28;20112;-70
2021/06/13 08:30:41;;;;;;;5.82;2.53;;;;;;;;;;5013159;28;20052;-69
2021/06/13 08:33:08;;;;;;;5.20;2.35;;;;;;;;;;5014218;28;20152;-69
2021/06/13 08:35:36;;;;;;;4.28;1.95;;;;;;;;;;5012246;28;20022;-69
2021/06/13 08:38:05;;;;;;;3.25;2.17;;;;;;;;;;5013984;28;20056;-69
2021/06/13 08:40:32;;;;;;;3.75;1.95;;;;;;;;;;5008336;28;20069;-69
2021/06/13 08:43:00;;;;;;;5.22;2.10;;;;;;;;;;5008439;28;20037;-69
2021/06/13 08:45:29;;;;;;;9.77;6.78;;;;;;;;;;5011663;28;20041;-69
2021/06/13 08:47:57;;;;;;;5.65;3.40;;;;;;;;;;5013480;28;20022;-69
2021/06/13 08:50:24;;;;;;;8.38;4.18;;;;;;;;;;5011997;28;20467;-69
2021/06/13 08:52:52;;;;;;;7.10;5.20;;;;;;;;;;5013638;28;20041;-69
2021/06/13 08:55:21;;;;;;;6.88;3.95;;;;;;;;;;5007169;28;20037;-69
2021/06/13 08:57:49;;;;;;;6.10;3.05;;;;;;;;;;4995227;28;20551;-69
2021/06/13 09:00:18;;;;;;;3.72;2.40;;;;;;;;;;4995946;28;20021;-69
2021/06/13 09:02:45;;;;;;;5.32;3.42;;;;;;;;;;5013134;28;20022;-69
2021/06/13 09:05:13;;;;;;;4.28;2.50;;;;;;;;;;5011426;28;20368;-69
2021/06/13 09:07:57;;;;;;;5.70;2.30;;;;;;;;;;5013341;28;20399;-70
2021/06/13 09:10:26;;;;;;;7.60;3.63;;;;;;;;;;5011459;28;20022;-69
2021/06/13 09:13:13;;;;;;;7.82;3.55;;;;;;;;;;5013338;28;20064;-69
2021/06/13 09:15:42;;;;;;;5.22;2.65;;;;;;;;;;5009069;28;20068;-69
2021/06/13 09:18:10;;;;;;;5.70;2.42;;;;;;;;;;5013268;28;20109;-69
2021/06/13 09:20:43;;;;;;;6.45;3.60;;;;;;;;;;5009884;28;20093;-69
2021/06/13 09:23:15;;;;;;;6.53;3.20;;;;;;;;;;5007592;28;20254;-69
2021/06/13 09:25:44;;;;;;;6.68;3.88;;;;;;;;;;5010398;28;20046;-70
2021/06/13 09:28:11;;;;;;;10.55;3.03;;;;;;;;;;5013240;28;20125;-69
2021/06/13 09:30:40;;;;;;;6.00;3.17;;;;;;;;;;5011688;28;20096;-69
2021/06/13 09:33:15;;;;;;;4.38;2.25;;;;;;;;;;5012929;28;20030;-69
2021/06/13 09:35:43;;;;;;;3.75;2.10;;;;;;;;;;5010572;28;20546;-70
2021/06/13 09:38:12;;;;;;;4.38;1.90;;;;;;;;;;5012853;28;20088;-69
2021/06/13 09:40:40;;;;;;;3.97;1.67;;;;;;;;;;5011794;28;20534;-69
2021/06/13 09:43:14;;;;;;;2.95;1.80;;;;;;;;;;5010893;28;20026;-70
2021/06/13 09:45:46;;;;;;;2.03;1.33;;;;;;;;;;5005302;28;20030;-69
2021/06/13 09:48:13;;;;;;;2.42;1.70;;;;;;;;;;5013033;28;20019;-69
2021/06/13 09:50:42;;;;;;;3.42;1.90;;;;;;;;;;5008945;28;20117;-69
2021/06/13 09:53:31;;;;;;;3.88;1.95;;;;;;;;;;5013026;28;20451;-70
2021/06/13 09:56:03;;;;;;;3.50;1.55;;;;;;;;;;5003151;28;20049;-69
2021/06/13 09:58:31;;;;;;;3.45;1.15;;;;;;;;;;5012626;28;20022;-69
2021/06/13 10:01:10;;;;;;;5.30;2.22;;;;;;;;;;5010555;28;20026;-69
2021/06/13 10:03:38;;;;;;;4.00;1.60;;;;;;;;;;5012416;28;20467;-70
2021/06/13 10:06:09;;;;;;;3.60;1.70;;;;;;;;;;5010771;28;20046;-70
2021/06/13 10:08:37;;;;;;;3.35;1.17;;;;;;;;;;5012646;28;20036;-70
2021/06/13 10:11:05;;;;;;;2.15;1.35;;;;;;;;;;5009638;28;20026;-69
2021/06/13 10:13:38;;;;;;;3.13;1.80;;;;;;;;;;5012580;28;20075;-70
2021/06/13 10:16:06;;;;;;;5.55;1.50;;;;;;;;;;5008490;28;20038;-70
2021/06/13 10:18:39;;;;;;;2.25;1.30;;;;;;;;;;4991781;28;20447;-70
2021/06/13 10:21:15;;;;;;;6.22;3.15;;;;;;;;;;5005574;28;20486;-70
2021/06/13 10:23:45;;;;;;;6.22;2.33;;;;;;;;;;5012372;28;20030;-70
2021/06/13 10:26:12;;;;;;;3.40;2.15;;;;;;;;;;5009420;28;20038;-70
2021/06/13 10:28:39;;;;;;;4.75;1.92;;;;;;;;;;5012375;28;20045;-71
2021/06/13 10:31:07;;;;;;;3.47;1.83;;;;;;;;;;5008353;28;20025;-70
2021/06/13 10:33:34;;;;;;;4.45;2.05;;;;;;;;;;5012268;28;20022;-70
2021/06/13 10:36:01;;;;;;;3.33;2.00;;;;;;;;;;5010854;28;20529;-70
2021/06/13 10:38:29;;;;;;;4.60;1.90;;;;;;;;;;5010679;28;20407;-70
2021/06/13 10:40:57;;;;;;;3.28;1.85;;;;;;;;;;5010529;28;20033;-71
2021/06/13 10:43:27;;;;;;;3.80;1.92;;;;;;;;;;5008994;28;20026;-70
2021/06/13 10:46:03;;;;;;;7.15;3.50;;;;;;;;;;5007053;28;20558;-70
2021/06/13 10:48:59;;;;;;;5.30;2.90;;;;;;;;;;5012338;28;20026;-70
2021/06/13 10:51:38;;;;;;;4.78;1.80;;;;;;;;;;5009245;28;20038;-70
2021/06/13 10:54:20;;;;;;;3.65;1.83;;;;;;;;;;5012173;28;20030;-70
2021/06/13 10:57:07;;;;;;;4.07;1.73;;;;;;;;;;5009202;28;20028;-70
2021/06/13 10:59:40;;;;;;;5.63;1.65;;;;;;;;;;5010898;28;20112;-71
2021/06/13 11:02:09;;;;;;;5.47;1.45;;;;;;;;;;5010383;28;20038;-70
2021/06/13 11:04:47;;;;;;;3.17;1.25;;;;;;;;;;5012175;28;20437;-71
2021/06/13 11:07:35;;;;;;;2.42;1.15;;;;;;;;;;5011517;28;20026;-70
2021/06/13 11:10:06;;;;;;;2.15;1.20;;;;;;;;;;5010234;28;20076;-70
2021/06/13 11:12:49;;;;;;;2.63;1.02;;;;;;;;;;5011663;28;20025;-70
2021/06/13 11:15:18;;;;;;;7.55;2.30;;;;;;;;;;5009590;28;20144;-70
2021/06/13 11:17:58;;;;;;;2.58;0.82;;;;;;;;;;5010454;28;20033;-70
2021/06/13 11:20:34;;;;;;;3.20;0.85;;;;;;;;;;5008838;28;20098;-71
2021/06/13 11:23:05;;;;;;;2.88;1.27;;;;;;;;;;5009517;28;20030;-71
2021/06/13 11:25:32;;;;;;;2.75;0.70;;;;;;;;;;5009048;28;20038;-70
2021/06/13 11:28:10;;;;;;;3.00;1.30;;;;;;;;;;5015618;28;20124;-71
2021/06/13 11:30:40;;;;;;;1.55;1.20;;;;;;;;;;5013548;28;20048;-71
2021/06/13 11:33:08;;;;;;;2.60;0.90;;;;;;;;;;5014136;28;20022;-71
2021/06/13 11:35:37;;;;;;;2.35;0.82;;;;;;;;;;5009352;28;20445;-70
2021/06/13 11:38:10;;;;;;;3.40;1.05;;;;;;;;;;5012177;28;20021;-71
2021/06/13 11:40:38;;;;;;;2.72;1.05;;;;;;;;;;5000109;28;20025;-70
2021/06/13 11:43:25;;;;;;;5.20;1.65;;;;;;;;;;5013846;28;20034;-70
2021/06/13 11:46:06;;;;;;;3.35;1.23;;;;;;;;;;5007535;28;20114;-70
2021/06/13 11:48:34;;;;;;;3.10;1.77;;;;;;;;;;4994299;28;20487;-70
2021/06/13 11:51:07;;;;;;;4.65;2.35;;;;;;;;;;5003222;28;20080;-70
2021/06/13 11:53:52;;;;;;;4.55;2.42;;;;;;;;;;5014887;28;20099;-70
2021/06/13 11:56:35;;;;;;;4.43;2.72;;;;;;;;;;5013217;28;20113;-70
2021/06/13 11:59:02;;;;;;;4.07;2.83;;;;;;;;;;5014697;28;20014;-70
2021/06/13 12:01:33;;;;;;;5.18;3.28;;;;;;;;;;5012814;28;20033;-70
2021/06/13 12:04:00;;;;;;;4.82;2.83;;;;;;;;;;5012345;28;20593;-70
2021/06/13 12:06:27;;;;;;;5.82;2.70;;;;;;;;;;5008715;28;20038;-70
2021/06/13 12:08:55;;;;;;;8.38;2.80;;;;;;;;;;5014653;28;20026;-70
2021/06/13 12:11:42;;;;;;;6.38;3.10;;;;;;;;;;5012303;28;20411;-70
2021/06/13 12:14:19;;;;;;;11.40;3.63;;;;;;;;;;5013842;28;20401;-70
2021/06/13 12:16:47;;;;;;;6.30;3.28;;;;;;;;;;5012015;28;20026;-70
2021/06/13 12:19:14;;;;;;;7.28;3.40;;;;;;;;;;5014265;28;20026;-70
2021/06/13 12:21:42;;;;;;;6.00;4.10;;;;;;;;;;5012639;28;20045;-70
2021/06/13 12:24:32;;;;;;;5.30;3.13;;;;;;;;;;5012656;28;20053;-70
2021/06/13 12:27:28;;;;;;;7.00;2.90;;;;;;;;;;4995548;28;20042;-70
2021/06/13 12:29:57;;;;;;;7.20;2.67;;;;;;;;;;5011602;28;20065;-70
2021/06/13 12:32:24;;;;;;;7.72;3.50;;;;;;;;;;5008880;28;20021;-70
2021/06/13 12:34:54;;;;;;;6.97;2.72;;;;;;;;;;4994008;28;20057;-70
2021/06/13 12:37:23;;;;;;;5.82;2.63;;;;;;;;;;4994303;28;20027;-71
2021/06/13 12:39:58;;;;;;;4.30;2.58;;;;;;;;;;5006062;28;20048;-70
2021/06/13 12:42:25;;;;;;;4.35;2.05;;;;;;;;;;4993822;28;20026;-70
2021/06/13 12:45:19;;;;;;;4.38;2.20;;;;;;;;;;4993578;28;20495;-70
2021/06/13 12:47:47;;;;;;;3.50;1.75;;;;;;;;;;4994875;28;20045;-70
2021/06/13 12:50:22;;;;;;;5.53;2.45;;;;;;;;;;4997069;28;20026;-69
2021/06/13 12:52:50;;;;;;;4.20;1.85;;;;;;;;;;5013835;28;20103;-70
2021/06/13 12:55:17;;;;;;;6.57;2.40;;;;;;;;;;5012055;28;20087;-70
2021/06/13 12:57:47;;;;;;;5.07;2.22;;;;;;;;;;5011894;28;20120;-70
2021/06/13 13:00:15;;;;;;;4.82;2.67;;;;;;;;;;5006786;28;20029;-70
2021/06/13 13:02:42;;;;;;;3.88;2.60;;;;;;;;;;5013041;28;20024;-70
2021/06/13 13:05:16;;;;;;;5.78;2.40;;;;;;;;;;5011236;28;20030;-70
2021/06/13 13:07:43;;;;;;;3.25;2.03;;;;;;;;;;5013596;28;20092;-70
2021/06/13 13:10:14;;;;;;;4.93;3.13;;;;;;;;;;5011960;28;20018;-70
2021/06/13 13:12:51;;;;;;;4.53;2.42;;;;;;;;;;5013135;28;20022;-70
2021/06/13 13:15:24;;;;;;;4.32;2.30;;;;;;;;;;5008827;28;20424;-70
2021/06/13 13:17:52;;;;;;;4.75;2.00;;;;;;;;;;5013446;28;20033;-70
2021/06/13 13:20:33;;;;;;;4.07;2.08;;;;;;;;;;5010767;28;20026;-69
2021/06/13 13:23:07;;;;;;;4.13;2.35;;;;;;;;;;5011424;28;20112;-70
2021/06/13 13:25:34;;;;;;;;;;;;;;;;;;5004399;28;20526;-70
2021/06/13 13:28:19;;;;;;;2.90;1.85;;;;;;;;;;4997982;28;19905;-70
2021/06/13 13:30:47;;;;;;;3.33;1.65;;;;;;;;;;5001239;28;20017;-70
2021/06/13 13:33:14;;;;;;;4.30;2.42;;;;;;;;;;5013179;28;20361;-70
2021/06/13 13:35:45;;;;;;;3.78;2.00;;;;;;;;;;5009528;28;20149;-70
2021/06/13 13:38:16;;;;;;;5.60;2.05;;;;;;;;;;5012898;28;20092;-70
2021/06/13 13:40:43;;;;;;;3.13;1.83;;;;;;;;;;5010564;28;20025;-69
2021/06/13 13:43:15;;;;;;;5.90;1.90;;;;;;;;;;5013211;28;20109;-69
2021/06/13 13:45:42;;;;;;;4.72;1.90;;;;;;;;;;5011012;28;20098;-70
2021/06/13 13:48:16;;;;;;;3.65;2.10;;;;;;;;;;5012244;28;20033;-70
2021/06/13 13:50:45;;;;;;;3.17;1.58;;;;;;;;;;5009242;28;20036;-70
2021/06/13 13:53:19;;;;;;;4.00;1.95;;;;;;;;;;5002461;28;20035;-70
2021/06/13 13:56:06;;;;;;;4.38;1.95;;;;;;;;;;4999815;28;20029;-70
2021/06/13 13:58:33;;;;;;;4.00;2.08;;;;;;;;;;5011976;28;20037;-69
2021/06/13 14:01:01;;;;;;;3.20;2.08;;;;;;;;;;5010223;28;20479;-70
2021/06/13 14:03:32;;;;;;;3.83;1.80;;;;;;;;;;5008356;28;20096;-69
2021/06/13 14:06:02;;;;;;;2.38;1.80;;;;;;;;;;5010062;28;20514;-69
2021/06/13 14:08:29;;;;;;;3.33;2.20;;;;;;;;;;5010813;28;20034;-70
2021/06/13 14:10:57;;;;;;;4.95;2.30;;;;;;;;;;5006485;28;20030;-70
2021/06/13 14:13:24;;;;;;;5.63;2.88;;;;;;;;;;5012042;28;20507;-70
2021/06/13 14:15:51;;;;;;;3.50;2.08;;;;;;;;;;5007988;28;20157;-70
2021/06/13 14:18:18;;;;;;;4.18;2.25;;;;;;;;;;5011191;28;20025;-70
2021/06/13 14:20:45;;;;;;;4.50;2.40;;;;;;;;;;5008415;28;20014;-70
2021/06/13 14:23:12;;;;;;;4.93;2.70;;;;;;;;;;5012025;28;20014;-70
2021/06/13 14:25:39;;;;;;;5.13;2.50;;;;;;;;;;5009746;28;20041;-70
2021/06/13 14:28:08;;;;;;;7.97;2.90;;;;;;;;;;5010732;28;20033;-70
2021/06/13 14:30:36;;;;;;;4.07;2.55;;;;;;;;;;5010158;28;20022;-70
2021/06/13 14:33:03;;;;;;;5.75;2.42;;;;;;;;;;5012259;28;20018;-69
2021/06/13 14:35:31;;;;;;;4.93;2.60;;;;;;;;;;5010237;28;20025;-70
2021/06/13 14:37:58;;;;;;;4.90;3.08;;;;;;;;;;5010562;28;20080;-70
2021/06/13 14:40:25;;;;;;;4.57;2.58;;;;;;;;;;4996615;28;20030;-70
2021/06/13 14:42:52;;;;;;;5.13;2.83;;;;;;;;;;5012288;28;20022;-69
2021/06/13 14:45:19;;;;;;;8.23;2.80;;;;;;;;;;5010129;28;20113;-69
2021/06/13 14:47:46;;;;;;;3.88;2.60;;;;;;;;;;4999900;28;20471;-70
2021/06/13 14:50:14;;;;;;;4.28;2.60;;;;;;;;;;4995074;28;20029;-69
2021/06/13 14:52:42;;;;;;;5.00;2.83;;;;;;;;;;5011666;28;20022;-69
2021/06/13 14:55:10;;;;;;;8.13;3.35;;;;;;;;;;5009824;28;20022;-69
2021/06/13 14:57:37;;;;;;;7.03;2.97;;;;;;;;;;5010470;28;20112;-69